createdAt,value
2019-05-22T00:01:01.238Z,28.45
2019-05-22T00:03:47.882Z,30.45
2019-05-22T00:06:18.188Z,29.65
2019-05-22T00:08:48.257Z,30.43
2019-05-22T00:11:17.318Z,30.55
2019-05-22T00:13:47.923Z,30.12
2019-05-22T00:16:18.059Z,30.72
2019-05-22T00:18:47.289Z,31.17
2019-05-22T00:21:16.635Z,31.45
2019-05-22T00:26:15.217Z,32.48
2019-05-22T00:28:45.633Z,30.43
2019-05-22T00:31:15.738Z,36.90
2019-05-22T00:33:44.326Z,35.98
2019-05-22T00:36:14.673Z,37.17
2019-05-22T00:38:43.625Z,35.28
2019-05-22T00:41:13.343Z,34.92
2019-05-22T00:43:43.574Z,34.88
2019-05-22T00:46:15.099Z,29.48
2019-05-22T00:48:45.371Z,33.00
2019-05-22T00:51:29.571Z,30.32
2019-05-22T00:54:00.642Z,29.05
2019-05-22T00:56:31.789Z,31.50
2019-05-22T00:59:05.349Z,28.77
2019-05-22T01:01:48.023Z,30.10
2019-05-22T01:04:19.107Z,29.00
2019-05-22T01:06:48.676Z,27.98
2019-05-22T01:09:20.061Z,27.95
2019-05-22T01:11:48.713Z,27.25
2019-05-22T01:14:18.838Z,26.95
2019-05-22T01:16:49.089Z,25.82
2019-05-22T01:19:19.408Z,25.88
2019-05-22T01:21:50.635Z,26.73
2019-05-22T01:24:19.885Z,25.90
2019-05-22T01:26:50.139Z,24.25
2019-05-22T01:29:20.222Z,24.57
2019-05-22T01:31:53.192Z,24.43
2019-05-22T01:34:25.088Z,24.27
2019-05-22T01:36:55.993Z,20.90
2019-05-22T01:39:47.407Z,21.87
2019-05-22T01:42:18.444Z,21.93
2019-05-22T01:45:00.784Z,24.55
2019-05-22T01:47:22.696Z,23.52
2019-05-22T01:49:56.414Z,24.10
2019-05-22T01:52:26.717Z,21.87
2019-05-22T01:54:57.746Z,21.80
2019-05-22T01:57:27.651Z,22.22
2019-05-22T01:59:57.376Z,22.65
2019-05-22T02:02:26.495Z,22.45
2019-05-22T02:04:58.406Z,22.37
2019-05-22T02:07:29.119Z,21.65
2019-05-22T02:09:59.477Z,22.00
2019-05-22T02:12:37.694Z,20.60
2019-05-22T02:15:09.393Z,20.40
2019-05-22T02:17:39.529Z,19.92
2019-05-22T02:20:09.445Z,19.23
2019-05-22T02:22:38.895Z,21.00
2019-05-22T02:27:37.109Z,16.25
2019-05-22T02:30:10.596Z,15.65
2019-05-22T02:32:41.200Z,14.85
2019-05-22T02:35:11.093Z,17.77
2019-05-22T02:37:41.770Z,18.35
2019-05-22T02:40:26.009Z,17.70
2019-05-22T02:42:55.539Z,15.30
2019-05-22T02:45:25.545Z,17.40
2019-05-22T02:47:55.937Z,16.87
2019-05-22T02:50:25.886Z,16.90
2019-05-22T02:52:55.549Z,15.75
2019-05-22T02:55:26.196Z,16.20
2019-05-22T02:57:55.218Z,12.18
2019-05-22T03:00:27.099Z,15.30
2019-05-22T03:02:57.439Z,13.43
2019-05-22T03:05:26.829Z,11.43
2019-05-22T03:10:25.555Z,12.60
2019-05-22T03:12:54.228Z,12.90
2019-05-22T03:15:24.492Z,11.53
2019-05-22T03:17:56.309Z,10.65
2019-05-22T03:20:27.297Z,10.03
2019-05-22T03:23:03.021Z,10.63
2019-05-22T03:25:33.513Z,9.73
2019-05-22T03:28:05.148Z,9.90
2019-05-22T03:30:37.153Z,9.50
2019-05-22T03:33:08.638Z,10.48
2019-05-22T03:35:47.015Z,10.28
2019-05-22T03:38:18.086Z,8.93
2019-05-22T03:40:48.746Z,9.48
2019-05-22T03:43:20.784Z,10.28
2019-05-22T03:45:50.815Z,9.05
2019-05-22T03:48:21.618Z,8.90
2019-05-22T03:50:51.991Z,8.70
2019-05-22T03:53:21.032Z,9.08
2019-05-22T03:55:49.642Z,10.45
2019-05-22T03:58:19.005Z,10.95
2019-05-22T04:03:17.775Z,9.70
2019-05-22T04:05:47.689Z,9.55
2019-05-22T04:08:18.614Z,9.53
2019-05-22T04:10:56.793Z,8.93
2019-05-22T04:13:26.065Z,8.73
2019-05-22T04:15:55.781Z,8.50
2019-05-22T04:18:26.238Z,7.67
2019-05-22T04:20:56.925Z,8.93
2019-05-22T04:23:25.855Z,10.50
2019-05-22T04:25:56.610Z,9.65
2019-05-22T04:28:26.232Z,9.23
2019-05-22T04:30:54.968Z,8.58
2019-05-22T04:33:25.290Z,9.68
2019-05-22T04:35:54.217Z,9.38
2019-05-22T04:38:23.696Z,10.43
2019-05-22T04:40:54.387Z,9.33
2019-05-22T04:43:25.118Z,10.65
2019-05-22T04:45:55.007Z,13.55
2019-05-22T04:48:25.276Z,12.78
2019-05-22T04:50:54.717Z,15.30
2019-05-22T04:55:52.404Z,14.65
2019-05-22T04:58:22.950Z,19.52
2019-05-22T05:00:52.055Z,16.95
2019-05-22T05:03:21.483Z,19.37
2019-05-22T05:08:24.054Z,22.60
2019-05-22T05:10:53.629Z,20.45
2019-05-22T05:13:23.249Z,20.32
2019-05-22T05:15:51.930Z,21.95
2019-05-22T05:18:20.633Z,23.42
2019-05-22T05:20:49.431Z,26.55
2019-05-22T05:23:18.193Z,21.77
2019-05-22T05:25:47.003Z,21.90
2019-05-22T05:28:16.161Z,24.07
2019-05-22T05:30:44.930Z,25.12
2019-05-22T05:33:13.992Z,24.47
2019-05-22T05:35:44.054Z,29.95
2019-05-22T05:38:13.995Z,29.10
2019-05-22T05:40:43.633Z,21.80
2019-05-22T05:43:14.194Z,20.10
2019-05-22T05:45:44.357Z,20.90
2019-05-22T05:48:16.029Z,20.17
2019-05-22T05:51:06.438Z,25.15
2019-05-22T05:53:39.721Z,22.00
2019-05-22T05:56:16.727Z,18.87
2019-05-22T05:58:46.005Z,17.80
2019-05-22T06:01:20.802Z,15.03
2019-05-22T06:03:49.668Z,17.82
2019-05-22T06:06:26.090Z,16.65
2019-05-22T06:08:57.298Z,16.50
2019-05-22T06:11:42.367Z,19.35
2019-05-22T06:14:19.537Z,18.62
2019-05-22T06:16:58.743Z,20.27
2019-05-22T06:19:28.596Z,22.02
2019-05-22T06:21:58.343Z,20.45
2019-05-22T06:24:36.886Z,20.45
2019-05-22T06:27:09.724Z,20.02
2019-05-22T06:29:44.860Z,19.57
2019-05-22T06:32:34.521Z,22.58
2019-05-22T06:35:04.847Z,20.57
2019-05-22T06:37:48.369Z,19.37
2019-05-22T06:40:18.563Z,20.62
2019-05-22T06:42:50.199Z,22.32
2019-05-22T06:45:19.114Z,18.60
2019-05-22T06:47:47.950Z,17.52
2019-05-22T06:50:16.978Z,18.15
2019-05-22T06:52:45.856Z,18.42
2019-05-22T06:55:14.582Z,18.05
2019-05-22T06:57:43.224Z,18.90
2019-05-22T07:00:15.228Z,16.97
2019-05-22T07:02:43.612Z,13.55
2019-05-22T07:05:12.695Z,11.97
2019-05-22T07:07:42.518Z,9.38
2019-05-22T07:10:13.620Z,8.23
2019-05-22T07:12:43.162Z,9.43
2019-05-22T07:15:18.475Z,8.23
2019-05-22T07:17:47.679Z,9.55
2019-05-22T07:20:18.408Z,9.73
2019-05-22T07:22:47.644Z,8.60
2019-05-22T07:25:16.949Z,9.58
2019-05-22T07:30:15.072Z,11.55
2019-05-22T07:32:43.774Z,10.75
2019-05-22T07:35:13.280Z,9.88
2019-05-22T07:37:43.734Z,8.25
2019-05-22T07:40:13.677Z,8.75
2019-05-22T07:42:42.807Z,8.08
2019-05-22T07:45:13.903Z,8.58
2019-05-22T07:47:42.872Z,7.87
2019-05-22T07:50:12.734Z,8.70
2019-05-22T07:52:41.461Z,7.78
2019-05-22T07:55:10.576Z,7.28
2019-05-22T07:57:41.222Z,7.37
2019-05-22T08:00:10.154Z,7.35
2019-05-22T08:02:42.202Z,5.95
2019-05-22T08:05:11.672Z,5.85
2019-05-22T08:07:42.073Z,5.28
2019-05-22T08:10:14.164Z,5.50
2019-05-22T08:12:44.138Z,5.78
2019-05-22T08:15:14.411Z,5.05
2019-05-22T08:17:43.142Z,4.80
2019-05-22T08:20:12.684Z,5.10
2019-05-22T08:22:42.781Z,5.72
2019-05-22T08:25:12.123Z,5.97
2019-05-22T08:27:41.389Z,5.53
2019-05-22T08:30:11.470Z,5.70
2019-05-22T08:32:40.988Z,5.70
2019-05-22T08:35:11.864Z,5.45
2019-05-22T08:37:41.585Z,5.78
2019-05-22T08:40:17.690Z,5.50
2019-05-22T08:42:47.720Z,5.37
2019-05-22T08:45:18.019Z,5.35
2019-05-22T08:47:46.906Z,6.15
2019-05-22T08:50:17.869Z,4.95
2019-05-22T08:53:45.656Z,4.65
2019-05-22T08:56:00.743Z,4.83
2019-05-22T08:58:30.196Z,4.75
2019-05-22T09:00:59.222Z,4.60
2019-05-22T09:03:27.886Z,4.37
2019-05-22T09:05:56.579Z,8.45
2019-05-22T09:08:25.287Z,3.80
2019-05-22T09:10:54.137Z,3.33
2019-05-22T09:13:23.246Z,3.47
2019-05-22T09:15:52.014Z,3.47
2019-05-22T09:18:21.251Z,3.60
2019-05-22T09:20:50.267Z,3.83
2019-05-22T09:23:19.955Z,3.72
2019-05-22T09:25:48.769Z,3.02
2019-05-22T09:28:17.582Z,4.15
2019-05-22T09:30:46.374Z,3.87
2019-05-22T09:33:16.232Z,4.00
2019-05-22T09:35:44.886Z,3.90
2019-05-22T09:38:13.618Z,3.80
2019-05-22T09:40:42.535Z,4.62
2019-05-22T09:43:11.275Z,3.87
2019-05-22T09:45:40.496Z,4.00
2019-05-22T09:48:10.482Z,4.10
2019-05-22T09:50:39.798Z,3.92
2019-05-22T09:53:08.990Z,3.62
2019-05-22T09:55:38.500Z,3.72
2019-05-22T09:58:07.841Z,3.90
2019-05-22T10:00:37.229Z,4.20
2019-05-22T10:03:06.991Z,3.77
2019-05-22T10:05:35.792Z,4.60
2019-05-22T10:08:04.516Z,4.45
2019-05-22T10:13:00.987Z,4.40
2019-05-22T10:15:31.224Z,4.17
2019-05-22T10:18:00.967Z,4.28
2019-05-22T10:20:29.632Z,4.50
2019-05-22T10:23:14.016Z,5.03
2019-05-22T10:25:29.390Z,4.67
2019-05-22T10:27:59.368Z,4.80
2019-05-22T10:30:28.725Z,4.97
2019-05-22T10:32:57.701Z,4.78
2019-05-22T10:37:57.316Z,5.20
2019-05-22T10:40:26.731Z,5.05
2019-05-22T10:42:56.586Z,4.95
2019-05-22T10:45:26.117Z,5.25
2019-05-22T10:47:54.863Z,6.10
2019-05-22T10:50:25.101Z,6.62
2019-05-22T10:52:55.128Z,5.50
2019-05-22T10:55:24.386Z,5.95
2019-05-22T10:57:53.292Z,4.95
2019-05-22T11:00:22.910Z,5.10
2019-05-22T11:02:51.765Z,5.37
2019-05-22T11:05:21.636Z,5.90
2019-05-22T11:07:50.836Z,5.87
2019-05-22T11:10:22.538Z,7.87
2019-05-22T11:12:51.995Z,5.22
2019-05-22T11:15:22.191Z,5.67
2019-05-22T11:17:52.191Z,6.15
2019-05-22T11:20:22.108Z,4.28
2019-05-22T11:22:51.579Z,5.42
2019-05-22T11:25:21.701Z,4.90
2019-05-22T11:27:52.573Z,5.10
2019-05-22T11:30:21.944Z,4.92
2019-05-22T11:32:51.356Z,4.78
2019-05-22T11:35:20.751Z,5.20
2019-05-22T11:37:49.543Z,5.83
2019-05-22T11:40:20.335Z,5.30
2019-05-22T11:42:50.604Z,4.72
2019-05-22T11:45:20.712Z,4.83
2019-05-22T11:47:50.578Z,4.42
2019-05-22T11:50:21.709Z,4.60
2019-05-22T11:52:50.987Z,5.85
2019-05-22T11:55:20.385Z,4.90
2019-05-22T11:57:49.269Z,5.22
2019-05-22T12:00:22.299Z,4.95
2019-05-22T12:02:52.588Z,4.55
2019-05-22T12:05:22.888Z,4.62
2019-05-22T12:07:52.053Z,4.30
2019-05-22T12:10:23.170Z,4.35
2019-05-22T12:12:53.591Z,4.15
2019-05-22T12:15:26.355Z,4.47
2019-05-22T12:17:55.755Z,4.10
2019-05-22T12:20:25.327Z,3.90
2019-05-22T12:22:54.268Z,4.72
2019-05-22T12:27:51.833Z,4.35
2019-05-22T12:30:21.544Z,4.55
2019-05-22T12:32:52.434Z,4.67
2019-05-22T12:35:22.121Z,4.45
2019-05-22T12:37:51.200Z,4.22
2019-05-22T12:42:50.198Z,4.62
2019-05-22T12:45:25.230Z,5.15
2019-05-22T12:47:55.122Z,4.70
2019-05-22T12:50:27.387Z,4.50
2019-05-22T12:52:56.140Z,4.17
2019-05-22T12:55:25.091Z,4.45
2019-05-22T13:00:25.034Z,4.17
2019-05-22T13:02:55.335Z,4.10
2019-05-22T13:05:24.654Z,4.42
2019-05-22T13:07:53.857Z,4.87
2019-05-22T13:10:23.585Z,4.30
2019-05-22T13:12:52.295Z,7.03
2019-05-22T13:15:23.081Z,5.20
2019-05-22T13:17:54.109Z,4.70
2019-05-22T13:20:40.995Z,6.33
2019-05-22T13:22:57.026Z,7.78
2019-05-22T13:25:31.230Z,6.78
2019-05-22T13:28:02.572Z,7.12
2019-05-22T13:30:32.632Z,6.67
2019-05-22T13:33:01.978Z,9.93
2019-05-22T13:35:31.960Z,6.72
2019-05-22T13:38:01.256Z,6.20
2019-05-22T13:40:30.298Z,6.47
2019-05-22T13:42:59.573Z,5.85
2019-05-22T13:45:30.293Z,5.92
2019-05-22T13:47:59.997Z,5.37
2019-05-22T13:50:29.409Z,5.58
2019-05-22T13:53:00.541Z,5.55
2019-05-22T13:55:30.010Z,6.00
2019-05-22T13:57:59.960Z,8.33
2019-05-22T14:00:28.908Z,6.90
2019-05-22T14:02:58.038Z,16.87
2019-05-22T14:05:28.447Z,6.53
2019-05-22T14:07:57.554Z,5.55
2019-05-22T14:12:56.289Z,5.85
2019-05-22T14:17:53.557Z,7.75
2019-05-22T14:20:22.870Z,7.22
2019-05-22T14:22:51.573Z,9.83
2019-05-22T14:25:22.320Z,12.13
2019-05-22T14:27:51.154Z,13.13
2019-05-22T14:30:21.787Z,17.12
2019-05-22T14:32:50.783Z,17.87
2019-05-22T14:35:20.312Z,16.23
2019-05-22T14:37:49.316Z,15.93
2019-05-22T14:40:19.018Z,15.35
2019-05-22T14:42:47.887Z,15.78
2019-05-22T14:45:17.234Z,13.88
2019-05-22T14:47:46.063Z,12.47
2019-05-22T14:50:17.175Z,13.00
2019-05-22T14:52:45.870Z,11.53
2019-05-22T14:55:15.732Z,11.35
2019-05-22T14:57:45.041Z,10.08
2019-05-22T15:00:17.929Z,10.28
2019-05-22T15:02:53.257Z,10.93
2019-05-22T15:05:18.304Z,11.22
2019-05-22T15:07:47.043Z,11.30
2019-05-22T15:10:17.075Z,11.68
2019-05-22T15:12:46.102Z,13.40
2019-05-22T15:15:15.931Z,11.90
2019-05-22T15:17:44.593Z,12.00
2019-05-22T15:20:20.434Z,13.20
2019-05-22T15:22:49.389Z,11.83
2019-05-22T15:25:18.506Z,9.63
2019-05-22T15:30:15.730Z,12.63
2019-05-22T15:32:44.731Z,9.63
2019-05-22T15:35:14.433Z,5.97
2019-05-22T15:37:43.805Z,5.08
2019-05-22T15:40:13.803Z,4.33
2019-05-22T15:42:44.970Z,4.20
2019-05-22T15:45:17.695Z,4.37
2019-05-22T15:47:56.614Z,4.78
2019-05-22T15:50:21.346Z,5.00
2019-05-22T15:52:57.479Z,5.67
2019-05-22T15:55:31.282Z,4.92
2019-05-22T15:58:01.764Z,5.20
2019-05-22T16:00:34.597Z,5.87
2019-05-22T16:03:15.285Z,5.15
2019-05-22T16:05:45.195Z,5.10
2019-05-22T16:08:15.062Z,5.37
2019-05-22T16:10:46.644Z,5.37
2019-05-22T16:13:18.054Z,5.58
2019-05-22T16:15:50.035Z,5.92
2019-05-22T16:18:22.214Z,5.47
2019-05-22T16:20:52.054Z,5.40
2019-05-22T16:23:22.315Z,5.65
2019-05-22T16:25:52.912Z,5.70
2019-05-22T16:28:23.111Z,5.78
2019-05-22T16:30:52.934Z,5.97
2019-05-22T16:33:23.842Z,6.78
2019-05-22T16:35:52.958Z,5.65
2019-05-22T16:38:23.462Z,6.62
2019-05-22T16:40:52.721Z,6.00
2019-05-22T16:45:49.693Z,5.53
2019-05-22T16:48:28.294Z,5.72
2019-05-22T16:50:50.666Z,5.83
2019-05-22T16:53:19.921Z,5.53
2019-05-22T16:58:17.426Z,5.05
2019-05-22T17:00:47.215Z,5.55
2019-05-22T17:03:16.793Z,5.97
2019-05-22T17:05:46.286Z,5.78
2019-05-22T17:08:16.191Z,6.08
2019-05-22T17:10:45.134Z,5.62
2019-05-22T17:13:16.849Z,5.97
2019-05-22T17:15:45.554Z,5.00
2019-05-22T17:18:16.395Z,5.00
2019-05-22T17:20:47.570Z,4.65
2019-05-22T17:23:17.506Z,4.37
2019-05-22T17:25:46.925Z,4.62
2019-05-22T17:28:17.821Z,4.00
2019-05-22T17:30:47.136Z,4.65
2019-05-22T17:35:44.978Z,4.50
2019-05-22T17:38:15.028Z,4.83
2019-05-22T17:40:44.679Z,4.87
2019-05-22T17:43:14.469Z,6.37
2019-05-22T17:45:44.906Z,6.20
2019-05-22T17:48:16.218Z,4.78
2019-05-22T17:50:47.279Z,5.67
2019-05-22T17:53:17.838Z,6.58
2019-05-22T17:55:48.273Z,5.67
2019-05-22T17:58:17.736Z,5.55
2019-05-22T18:00:48.314Z,6.10
2019-05-22T18:03:18.225Z,7.00
2019-05-22T18:05:46.970Z,6.17
2019-05-22T18:08:16.196Z,6.10
2019-05-22T18:13:15.283Z,6.47
2019-05-22T18:15:44.534Z,6.58
2019-05-22T18:20:43.707Z,6.85
2019-05-22T18:23:12.157Z,7.08
2019-05-22T18:25:41.230Z,7.08
2019-05-22T18:28:11.816Z,7.35
2019-05-22T18:30:42.630Z,8.08
2019-05-22T18:33:12.595Z,7.70
2019-05-22T18:35:41.523Z,8.80
2019-05-22T18:38:10.632Z,8.85
2019-05-22T18:40:39.626Z,7.90
2019-05-22T18:43:08.926Z,14.10
2019-05-22T18:48:06.555Z,8.70
2019-05-22T18:50:36.304Z,8.58
2019-05-22T18:53:05.395Z,8.33
2019-05-22T18:55:34.103Z,8.63
2019-05-22T18:58:03.076Z,8.95
2019-05-22T19:00:33.680Z,8.68
2019-05-22T19:03:02.770Z,8.83
2019-05-22T19:05:33.799Z,9.53
2019-05-22T19:08:02.595Z,9.70
2019-05-22T19:10:31.923Z,9.00
2019-05-22T19:15:29.337Z,9.90
2019-05-22T19:17:58.726Z,9.15
2019-05-22T19:20:27.640Z,8.95
2019-05-22T19:23:00.697Z,9.35
2019-05-22T19:25:27.445Z,9.68
2019-05-22T19:30:24.845Z,8.90
2019-05-22T19:35:21.654Z,8.80
2019-05-22T19:37:51.225Z,9.55
2019-05-22T19:40:20.134Z,9.50
2019-05-22T19:42:48.776Z,10.08
2019-05-22T19:45:18.999Z,10.38
2019-05-22T19:47:52.833Z,10.05
2019-05-22T19:50:23.904Z,10.70
2019-05-22T19:52:54.702Z,10.85
2019-05-22T19:55:26.010Z,11.35
2019-05-22T19:57:55.164Z,10.63
2019-05-22T20:00:25.728Z,12.15
2019-05-22T20:02:55.529Z,12.03
2019-05-22T20:05:25.621Z,11.38
2019-05-22T20:07:54.994Z,12.30
2019-05-22T20:12:52.531Z,14.40
2019-05-22T20:15:22.527Z,15.28
2019-05-22T20:17:51.865Z,14.47
2019-05-22T20:22:49.895Z,15.38
2019-05-22T20:25:20.510Z,14.73
2019-05-22T20:27:49.258Z,14.78
2019-05-22T20:30:20.217Z,15.13
2019-05-22T20:32:49.002Z,15.93
2019-05-22T20:35:19.678Z,16.75
2019-05-22T20:37:48.910Z,17.20
2019-05-22T20:40:20.306Z,16.17
2019-05-22T20:42:49.143Z,15.45
2019-05-22T20:45:21.197Z,13.80
2019-05-22T20:47:54.629Z,13.80
2019-05-22T20:50:24.753Z,13.85
2019-05-22T20:52:53.538Z,15.25
2019-05-22T20:55:22.854Z,13.68
2019-05-22T21:00:21.586Z,15.70
2019-05-22T21:02:53.271Z,16.52
2019-05-22T21:05:24.644Z,16.05
2019-05-22T21:07:57.114Z,16.20
2019-05-22T21:10:27.216Z,15.50
2019-05-22T21:12:57.646Z,15.88
2019-05-22T21:15:28.726Z,17.10
2019-05-22T21:17:57.817Z,17.07
2019-05-22T21:20:28.094Z,17.15
2019-05-22T21:22:57.085Z,17.07
2019-05-22T21:25:26.122Z,17.90
2019-05-22T21:27:55.059Z,18.32
2019-05-22T21:30:26.811Z,17.65
2019-05-22T21:32:55.766Z,19.00
2019-05-22T21:35:25.094Z,19.27
2019-05-22T21:37:54.878Z,18.60
2019-05-22T21:40:24.110Z,19.37
2019-05-22T21:42:53.914Z,19.27
2019-05-22T21:45:24.213Z,19.12
2019-05-22T21:47:53.276Z,21.73
2019-05-22T21:50:22.817Z,19.77
2019-05-22T21:52:52.214Z,19.55
2019-05-22T21:57:49.781Z,20.20
2019-05-22T22:00:34.799Z,20.48
2019-05-22T22:03:04.992Z,21.62
2019-05-22T22:05:33.932Z,21.62
2019-05-22T22:08:03.773Z,20.60
2019-05-22T22:10:32.603Z,21.23
2019-05-22T22:13:01.785Z,21.17
2019-05-22T22:15:32.207Z,21.40
2019-05-22T22:18:01.106Z,22.10
2019-05-22T22:20:30.181Z,23.40
2019-05-22T22:22:58.856Z,21.85
2019-05-22T22:25:27.517Z,23.70
2019-05-22T22:27:56.850Z,22.40
2019-05-22T22:30:29.838Z,23.75
2019-05-22T22:33:01.271Z,23.12
2019-05-22T22:35:30.369Z,23.42
2019-05-22T22:37:59.357Z,24.50
2019-05-22T22:40:29.655Z,28.45
2019-05-22T22:43:00.070Z,24.87
2019-05-22T22:45:41.734Z,24.18
2019-05-22T22:48:11.572Z,26.90
2019-05-22T22:50:41.095Z,26.70
2019-05-22T22:53:10.429Z,25.55
2019-05-22T22:55:40.266Z,23.87
2019-05-22T22:58:17.028Z,26.10
2019-05-22T23:00:46.375Z,28.90
2019-05-22T23:03:18.895Z,28.00
2019-05-22T23:05:49.390Z,28.02
2019-05-22T23:08:24.068Z,28.85
2019-05-22T23:10:53.081Z,29.05
2019-05-22T23:13:23.624Z,30.10
2019-05-22T23:15:54.111Z,30.88
2019-05-22T23:18:41.622Z,32.10
2019-05-22T23:21:09.524Z,30.60
2019-05-22T23:23:37.808Z,31.85
2019-05-22T23:26:08.486Z,33.02
2019-05-22T23:28:40.781Z,32.08
2019-05-22T23:31:10.004Z,32.80
2019-05-22T23:36:08.929Z,32.67
2019-05-22T23:38:38.425Z,32.55
2019-05-22T23:41:07.963Z,34.70
2019-05-22T23:43:37.217Z,33.23
2019-05-22T23:46:08.517Z,33.05
2019-05-22T23:48:39.025Z,33.70
2019-05-22T23:51:08.832Z,34.63
2019-05-22T23:53:37.899Z,34.40
2019-05-22T23:56:09.014Z,33.60
2019-05-22T23:58:52.059Z,35.80
